createdAt,value
2017-09-18T00:00:21.103Z,11.60
2017-09-18T00:02:48.530Z,11.70
2017-09-18T00:05:16.025Z,11.80
2017-09-18T00:07:43.479Z,11.90
2017-09-18T00:10:10.918Z,11.80
2017-09-18T00:12:38.395Z,11.70
2017-09-18T00:15:05.823Z,11.80
2017-09-18T00:17:33.261Z,11.90
2017-09-18T00:20:01.482Z,11.80
2017-09-18T00:22:28.934Z,11.80
2017-09-18T00:24:56.367Z,11.70
2017-09-18T00:27:23.823Z,11.60
2017-09-18T00:29:51.305Z,11.50
2017-09-18T00:32:18.754Z,11.50
2017-09-18T00:34:46.195Z,11.50
2017-09-18T00:37:13.630Z,11.50
2017-09-18T00:39:41.130Z,11.50
2017-09-18T00:42:08.565Z,11.50
2017-09-18T00:44:36.040Z,11.50
2017-09-18T00:47:03.470Z,11.50
2017-09-18T00:49:30.922Z,11.70
2017-09-18T00:51:58.354Z,11.80
2017-09-18T00:54:26.551Z,12.00
2017-09-18T00:56:53.999Z,12.00
2017-09-18T00:59:21.438Z,12.10
2017-09-18T01:01:49.667Z,11.90
2017-09-18T01:04:17.111Z,11.80
2017-09-18T01:06:44.665Z,11.80
2017-09-18T01:09:12.086Z,11.80
2017-09-18T01:11:40.298Z,12.20
2017-09-18T01:14:07.878Z,12.10
2017-09-18T01:16:35.315Z,12.30
2017-09-18T01:19:02.792Z,12.40
2017-09-18T01:21:30.341Z,12.30
2017-09-18T01:23:57.775Z,12.40
2017-09-18T01:26:25.223Z,12.30
2017-09-18T01:28:52.663Z,12.10
2017-09-18T01:31:20.879Z,12.00
2017-09-18T01:33:48.314Z,11.90
2017-09-18T01:36:15.794Z,12.00
2017-09-18T01:38:43.231Z,12.20
2017-09-18T01:41:10.682Z,12.10
2017-09-18T01:43:38.171Z,12.20
2017-09-18T01:46:05.612Z,12.40
2017-09-18T01:48:33.043Z,12.60
2017-09-18T01:51:00.507Z,12.80
2017-09-18T01:53:27.999Z,12.80
2017-09-18T01:55:55.434Z,12.90
2017-09-18T01:58:22.884Z,12.70
2017-09-18T02:00:50.326Z,12.50
2017-09-18T02:03:17.762Z,12.50
2017-09-18T02:05:45.968Z,12.40
2017-09-18T02:08:13.419Z,12.40
2017-09-18T02:10:40.908Z,12.40
2017-09-18T02:13:08.367Z,12.40
2017-09-18T02:15:35.804Z,12.40
2017-09-18T02:18:03.254Z,12.50
2017-09-18T02:20:30.740Z,12.50
2017-09-18T02:22:58.182Z,12.50
2017-09-18T02:25:25.623Z,12.40
2017-09-18T02:27:53.890Z,12.50
2017-09-18T02:30:22.094Z,12.60
2017-09-18T02:32:49.547Z,12.50
2017-09-18T02:35:17.747Z,12.20
2017-09-18T02:37:45.228Z,12.20
2017-09-18T02:40:12.662Z,12.00
2017-09-18T02:42:40.100Z,11.90
2017-09-18T02:45:07.534Z,11.80
2017-09-18T02:47:35.768Z,11.60
2017-09-18T02:50:03.239Z,11.50
2017-09-18T02:52:30.683Z,11.60
2017-09-18T02:54:58.135Z,11.60
2017-09-18T02:57:25.598Z,11.60
2017-09-18T02:59:53.135Z,11.60
2017-09-18T03:02:20.576Z,11.60
2017-09-18T03:04:48.060Z,11.70
2017-09-18T03:07:15.514Z,11.70
2017-09-18T03:09:42.955Z,11.70
2017-09-18T03:12:10.406Z,11.70
2017-09-18T03:14:37.838Z,11.60
2017-09-18T03:17:06.036Z,11.50
2017-09-18T03:19:33.515Z,11.50
2017-09-18T03:22:00.966Z,11.60
2017-09-18T03:24:28.427Z,11.70
2017-09-18T03:26:55.887Z,11.90
2017-09-18T03:29:23.331Z,12.00
2017-09-18T03:31:50.773Z,12.20
2017-09-18T03:34:18.203Z,12.40
2017-09-18T03:36:46.425Z,12.30
2017-09-18T03:39:13.857Z,12.20
2017-09-18T03:41:41.314Z,12.10
2017-09-18T03:44:08.735Z,12.10
2017-09-18T03:46:36.940Z,11.90
2017-09-18T03:49:04.383Z,11.80
2017-09-18T03:51:31.897Z,11.80
2017-09-18T03:53:59.351Z,11.80
2017-09-18T03:56:26.795Z,11.90
2017-09-18T03:58:54.232Z,11.70
2017-09-18T04:01:21.711Z,11.50
2017-09-18T04:03:49.155Z,11.40
2017-09-18T04:06:16.601Z,11.40
2017-09-18T04:08:44.052Z,11.40
2017-09-18T04:11:11.483Z,11.50
2017-09-18T04:13:38.926Z,11.70
2017-09-18T04:16:06.426Z,11.90
2017-09-18T04:18:33.899Z,12.00
2017-09-18T04:21:01.327Z,12.10
2017-09-18T04:23:28.771Z,12.10
2017-09-18T04:25:56.234Z,12.10
2017-09-18T04:28:23.783Z,11.80
2017-09-18T04:30:51.275Z,11.60
2017-09-18T04:33:18.770Z,11.50
2017-09-18T04:35:46.207Z,11.60
2017-09-18T04:38:14.427Z,11.60
2017-09-18T04:40:41.995Z,11.50
2017-09-18T04:43:09.471Z,11.60
2017-09-18T04:45:37.102Z,11.60
2017-09-18T04:48:04.546Z,11.70
2017-09-18T04:50:31.983Z,11.90
2017-09-18T04:53:04.266Z,11.90
2017-09-18T04:55:31.691Z,12.00
2017-09-18T04:57:59.920Z,12.10
2017-09-18T05:00:27.499Z,12.10
2017-09-18T05:02:54.935Z,12.00
2017-09-18T05:05:22.384Z,11.90
2017-09-18T05:07:49.815Z,11.90
2017-09-18T05:10:17.275Z,11.90
2017-09-18T05:12:44.723Z,11.90
2017-09-18T05:15:12.196Z,11.80
2017-09-18T05:17:39.666Z,12.00
2017-09-18T05:20:07.115Z,12.00
2017-09-18T05:22:34.588Z,11.90
2017-09-18T05:25:02.026Z,11.70
2017-09-18T05:27:29.517Z,11.60
2017-09-18T05:29:56.951Z,11.50
2017-09-18T05:32:24.438Z,11.50
2017-09-18T05:34:51.930Z,11.50
2017-09-18T05:37:19.501Z,11.40
2017-09-18T05:39:46.974Z,11.40
2017-09-18T05:42:14.620Z,11.30
2017-09-18T05:44:42.047Z,11.40
2017-09-18T05:47:10.266Z,11.50
2017-09-18T05:49:37.715Z,11.50
2017-09-18T05:52:05.185Z,11.60
2017-09-18T05:54:32.619Z,11.60
2017-09-18T05:57:00.047Z,11.70
2017-09-18T05:59:27.554Z,11.70
2017-09-18T06:01:55.006Z,11.90
2017-09-18T06:04:22.463Z,11.90
2017-09-18T06:06:49.917Z,11.90
2017-09-18T06:09:17.368Z,11.90
2017-09-18T06:11:44.811Z,12.00
2017-09-18T06:14:12.274Z,12.10
2017-09-18T06:16:39.749Z,12.10
2017-09-18T06:19:07.189Z,12.20
2017-09-18T06:21:34.635Z,12.20
2017-09-18T06:24:02.094Z,12.20
2017-09-18T06:26:29.550Z,12.30
2017-09-18T06:28:57.026Z,12.20
2017-09-18T06:31:24.478Z,12.20
2017-09-18T06:33:51.942Z,12.30
2017-09-18T06:36:19.396Z,12.20
2017-09-18T06:38:46.831Z,12.20
2017-09-18T06:41:14.260Z,12.30
2017-09-18T06:43:41.741Z,12.30
2017-09-18T06:46:09.186Z,12.30
2017-09-18T06:48:36.677Z,12.40
2017-09-18T06:51:04.119Z,12.50
2017-09-18T06:53:31.552Z,12.70
2017-09-18T06:55:58.992Z,12.90
2017-09-18T06:58:27.219Z,13.30
2017-09-18T07:00:54.663Z,13.20
2017-09-18T07:03:22.110Z,13.40
2017-09-18T07:05:49.668Z,13.60
2017-09-18T07:08:17.109Z,13.70
2017-09-18T07:10:44.611Z,13.60
2017-09-18T07:13:12.986Z,13.60
2017-09-18T07:15:40.522Z,13.70
2017-09-18T07:18:08.075Z,13.80
2017-09-18T07:20:35.517Z,13.90
2017-09-18T07:23:03.007Z,14.00
2017-09-18T07:25:30.454Z,14.10
2017-09-18T07:27:57.891Z,14.10
2017-09-18T07:30:25.341Z,14.20
2017-09-18T07:32:52.840Z,14.30
2017-09-18T07:35:20.277Z,14.40
2017-09-18T07:37:47.729Z,14.50
2017-09-18T07:40:15.195Z,14.50
2017-09-18T07:42:42.676Z,14.50
2017-09-18T07:45:10.131Z,14.50
2017-09-18T07:47:37.567Z,14.30
2017-09-18T07:50:05.063Z,14.30
2017-09-18T07:52:32.603Z,14.30
2017-09-18T07:55:00.470Z,14.40
2017-09-18T07:57:28.047Z,14.40
2017-09-18T07:59:55.567Z,14.40
2017-09-18T08:02:23.014Z,14.50
2017-09-18T08:04:50.563Z,14.50
2017-09-18T08:07:18.062Z,14.60
2017-09-18T08:09:45.578Z,14.60
2017-09-18T08:12:13.005Z,14.60
2017-09-18T08:14:41.235Z,14.50
2017-09-18T08:17:08.707Z,14.50
2017-09-18T08:19:37.693Z,14.40
2017-09-18T08:22:05.362Z,14.30
2017-09-18T08:24:32.808Z,14.40
2017-09-18T08:27:00.272Z,14.40
2017-09-18T08:29:27.819Z,14.50
2017-09-18T08:31:55.280Z,14.50
2017-09-18T08:34:22.820Z,14.60
2017-09-18T08:36:51.244Z,14.70
2017-09-18T08:39:18.663Z,14.70
2017-09-18T08:41:46.139Z,14.80
2017-09-18T08:44:13.567Z,14.80
2017-09-18T08:46:41.020Z,14.90
2017-09-18T08:49:08.500Z,14.90
2017-09-18T08:51:35.936Z,15.00
2017-09-18T08:54:03.369Z,14.90
2017-09-18T08:56:31.011Z,15.00
2017-09-18T08:58:58.460Z,14.90
2017-09-18T09:01:25.930Z,14.90
2017-09-18T09:03:53.583Z,14.90
2017-09-18T09:06:20.994Z,15.00
2017-09-18T09:08:48.483Z,15.10
2017-09-18T09:11:16.021Z,15.10
2017-09-18T09:13:43.430Z,15.30
2017-09-18T09:16:10.902Z,15.30
2017-09-18T09:18:38.440Z,15.30
2017-09-18T09:21:05.915Z,15.30
2017-09-18T09:23:34.143Z,15.40
2017-09-18T09:26:01.576Z,15.30
2017-09-18T09:28:29.057Z,15.40
2017-09-18T09:30:56.480Z,15.50
2017-09-18T09:33:23.958Z,15.60
2017-09-18T09:35:51.566Z,15.60
2017-09-18T09:38:19.752Z,15.80
2017-09-18T09:40:47.233Z,15.80
2017-09-18T09:43:14.698Z,15.80
2017-09-18T09:45:42.178Z,15.70
2017-09-18T09:48:09.657Z,15.60
2017-09-18T09:50:37.086Z,15.60
2017-09-18T09:53:04.617Z,15.60
2017-09-18T09:55:32.083Z,15.70
2017-09-18T09:57:59.527Z,15.90
2017-09-18T10:00:26.970Z,16.00
2017-09-18T10:02:54.414Z,15.80
2017-09-18T10:05:22.742Z,15.60
2017-09-18T10:07:50.178Z,15.60
2017-09-18T10:10:17.614Z,15.70
2017-09-18T10:12:45.066Z,15.70
2017-09-18T10:15:12.527Z,15.70
2017-09-18T10:17:39.943Z,15.70
2017-09-18T10:20:07.416Z,15.80
2017-09-18T10:22:34.911Z,15.90
2017-09-18T10:25:02.386Z,16.00
2017-09-18T10:27:29.844Z,16.10
2017-09-18T10:29:57.273Z,16.20
2017-09-18T10:32:24.745Z,16.20
2017-09-18T10:34:52.184Z,16.40
2017-09-18T10:37:19.635Z,16.50
2017-09-18T10:39:47.082Z,16.50
2017-09-18T10:42:15.282Z,16.80
2017-09-18T10:44:42.730Z,16.80
2017-09-18T10:47:10.326Z,17.10
2017-09-18T10:49:38.531Z,17.50
2017-09-18T10:52:06.750Z,17.80
2017-09-18T10:54:34.207Z,17.70
2017-09-18T10:57:01.679Z,17.80
2017-09-18T10:59:29.236Z,17.80
2017-09-18T11:01:56.663Z,17.80
2017-09-18T11:04:24.140Z,18.00
2017-09-18T11:06:51.584Z,18.20
2017-09-18T11:09:19.072Z,18.40
2017-09-18T11:11:47.334Z,18.40
2017-09-18T11:14:14.779Z,18.30
2017-09-18T11:16:42.224Z,18.60
2017-09-18T11:19:09.659Z,18.70
2017-09-18T11:21:37.099Z,18.80
2017-09-18T11:24:05.295Z,19.10
2017-09-18T11:26:32.734Z,19.00
2017-09-18T11:29:00.171Z,19.00
2017-09-18T11:31:28.378Z,18.90
2017-09-18T11:33:56.334Z,18.90
2017-09-18T11:36:24.550Z,18.50
2017-09-18T11:38:52.091Z,18.40
2017-09-18T11:41:19.546Z,18.30
2017-09-18T11:43:46.975Z,18.10
2017-09-18T11:46:15.203Z,17.80
2017-09-18T11:48:42.639Z,17.70
2017-09-18T11:51:10.068Z,17.60
2017-09-18T11:53:38.270Z,17.30
2017-09-18T11:56:06.555Z,17.30
2017-09-18T11:58:34.015Z,17.20
2017-09-18T12:01:01.539Z,17.20
2017-09-18T12:03:30.471Z,17.10
2017-09-18T12:05:57.904Z,17.10
2017-09-18T12:08:25.347Z,17.30
2017-09-18T12:10:52.840Z,17.40
2017-09-18T12:13:20.275Z,17.50
2017-09-18T12:15:47.730Z,17.70
2017-09-18T12:18:15.213Z,17.70
2017-09-18T12:20:42.659Z,17.70
2017-09-18T12:23:10.100Z,17.80
2017-09-18T12:25:37.575Z,17.70
2017-09-18T12:28:05.017Z,17.40
2017-09-18T12:30:32.719Z,17.10
2017-09-18T12:33:00.263Z,16.80
2017-09-18T12:35:27.704Z,16.80
2017-09-18T12:37:55.161Z,16.70
2017-09-18T12:40:22.599Z,16.70
2017-09-18T12:42:50.058Z,16.60
2017-09-18T12:45:17.616Z,16.50
2017-09-18T12:47:45.061Z,16.50
2017-09-18T12:50:12.502Z,16.40
2017-09-18T12:52:40.084Z,16.20
2017-09-18T12:55:07.547Z,16.10
2017-09-18T12:57:35.015Z,16.10
2017-09-18T13:00:02.475Z,16.10
2017-09-18T13:02:29.914Z,16.10
2017-09-18T13:04:57.366Z,16.20
2017-09-18T13:07:24.826Z,16.40
2017-09-18T13:09:52.306Z,16.40
2017-09-18T13:12:19.769Z,16.50
2017-09-18T13:14:47.339Z,16.80
2017-09-18T13:17:14.796Z,17.30
2017-09-18T13:19:42.235Z,17.50
2017-09-18T13:22:09.770Z,17.60
2017-09-18T13:24:37.225Z,17.70
2017-09-18T13:27:04.642Z,17.70
2017-09-18T13:29:32.869Z,17.60
2017-09-18T13:32:00.325Z,17.60
2017-09-18T13:34:27.807Z,17.50
2017-09-18T13:36:55.247Z,17.50
2017-09-18T13:39:22.776Z,17.30
2017-09-18T13:41:50.336Z,17.20
2017-09-18T13:44:17.766Z,17.40
2017-09-18T13:46:45.286Z,17.60
2017-09-18T13:49:12.722Z,17.90
2017-09-18T13:51:40.178Z,18.00
2017-09-18T13:54:07.637Z,17.80
2017-09-18T13:56:35.100Z,17.70
2017-09-18T13:59:02.563Z,17.40
2017-09-18T14:01:30.138Z,17.20
2017-09-18T14:03:57.748Z,17.10
2017-09-18T14:06:25.554Z,16.90
2017-09-18T14:08:53.053Z,16.90
2017-09-18T14:11:20.698Z,16.70
2017-09-18T14:13:48.931Z,16.60
2017-09-18T14:16:16.468Z,16.60
2017-09-18T14:18:43.894Z,16.70
2017-09-18T14:21:11.383Z,16.70
2017-09-18T14:23:38.822Z,16.80
2017-09-18T14:26:06.291Z,16.80
2017-09-18T14:28:33.778Z,16.90
2017-09-18T14:31:01.241Z,17.00
2017-09-18T14:33:28.671Z,17.20
2017-09-18T14:35:56.123Z,17.20
2017-09-18T14:38:23.563Z,17.20
2017-09-18T14:40:52.135Z,17.10
2017-09-18T14:43:19.580Z,17.00
2017-09-18T14:45:47.774Z,17.10
2017-09-18T14:48:15.230Z,17.00
2017-09-18T14:50:43.453Z,17.50
2017-09-18T14:53:10.870Z,17.50
2017-09-18T14:55:38.307Z,17.80
2017-09-18T14:58:05.805Z,17.90
2017-09-18T15:00:33.355Z,18.00
2017-09-18T15:03:00.845Z,16.80
2017-09-18T15:05:29.104Z,18.20
2017-09-18T15:07:56.540Z,18.20
2017-09-18T15:10:24.050Z,18.40
2017-09-18T15:12:52.459Z,19.10
2017-09-18T15:15:19.892Z,19.00
2017-09-18T15:17:47.337Z,19.40
2017-09-18T15:20:15.547Z,19.30
2017-09-18T15:22:42.984Z,19.30
2017-09-18T15:25:11.206Z,19.00
2017-09-18T15:27:38.655Z,19.00
2017-09-18T15:30:06.126Z,19.10
2017-09-18T15:32:33.614Z,18.90
2017-09-18T15:35:01.103Z,18.90
2017-09-18T15:37:28.573Z,18.70
2017-09-18T15:39:56.066Z,18.80
2017-09-18T15:42:23.506Z,19.10
2017-09-18T15:44:50.977Z,19.40
2017-09-18T15:47:18.595Z,19.90
2017-09-18T15:49:46.019Z,20.60
2017-09-18T15:52:13.486Z,21.10
2017-09-18T15:54:40.979Z,21.80
2017-09-18T15:57:08.451Z,22.10
2017-09-18T15:59:35.931Z,22.10
2017-09-18T16:02:04.175Z,21.30
2017-09-18T16:04:31.630Z,21.30
2017-09-18T16:06:59.162Z,21.10
2017-09-18T16:09:26.769Z,20.90
2017-09-18T16:11:54.384Z,20.50
2017-09-18T16:14:21.803Z,20.30
2017-09-18T16:16:50.053Z,19.60
2017-09-18T16:19:17.505Z,19.60
2017-09-18T16:21:44.951Z,19.40
2017-09-18T16:24:12.400Z,19.10
2017-09-18T16:26:39.840Z,18.90
2017-09-18T16:29:07.292Z,18.60
2017-09-18T16:31:34.791Z,18.50
2017-09-18T16:34:02.236Z,18.30
2017-09-18T16:36:29.686Z,18.20
2017-09-18T16:38:57.154Z,18.10
2017-09-18T16:41:24.815Z,18.00
2017-09-18T16:43:52.323Z,16.70
2017-09-18T16:46:19.864Z,18.00
2017-09-18T16:48:48.171Z,17.90
2017-09-18T16:51:15.668Z,17.80
2017-09-18T16:53:43.119Z,17.80
2017-09-18T16:56:10.561Z,17.70
2017-09-18T16:58:38.100Z,17.70
2017-09-18T17:01:05.583Z,17.60
2017-09-18T17:03:33.126Z,17.40
2017-09-18T17:06:00.700Z,17.30
2017-09-18T17:08:28.278Z,17.30
2017-09-18T17:10:55.776Z,17.10
2017-09-18T17:13:23.243Z,16.90
2017-09-18T17:15:50.704Z,16.70
2017-09-18T17:18:18.191Z,16.50
2017-09-18T17:20:45.683Z,16.50
2017-09-18T17:23:13.110Z,16.50
2017-09-18T17:25:40.551Z,16.60
2017-09-18T17:28:08.122Z,16.50
2017-09-18T17:30:35.559Z,16.40
2017-09-18T17:33:03.904Z,16.00
2017-09-18T17:35:31.554Z,15.90
2017-09-18T17:37:59.032Z,15.80
2017-09-18T17:40:26.468Z,15.80
2017-09-18T17:42:54.147Z,15.70
2017-09-18T17:45:21.603Z,15.60
2017-09-18T17:47:49.050Z,15.60
2017-09-18T17:50:16.500Z,15.60
2017-09-18T17:52:44.716Z,15.60
2017-09-18T17:55:12.153Z,15.50
2017-09-18T17:57:39.599Z,15.50
2017-09-18T18:00:07.290Z,15.50
2017-09-18T18:02:34.722Z,15.50
2017-09-18T18:05:02.147Z,15.50
2017-09-18T18:07:29.647Z,15.60
2017-09-18T18:09:57.091Z,15.50
2017-09-18T18:12:24.536Z,15.50
2017-09-18T18:14:52.738Z,15.60
2017-09-18T18:17:20.191Z,15.50
2017-09-18T18:19:47.684Z,15.70
2017-09-18T18:22:15.204Z,15.70
2017-09-18T18:24:42.631Z,15.70
2017-09-18T18:27:10.853Z,15.50
2017-09-18T18:29:38.322Z,15.50
2017-09-18T18:32:05.778Z,15.60
2017-09-18T18:34:33.238Z,15.50
2017-09-18T18:37:00.721Z,15.50
2017-09-18T18:39:28.245Z,15.50
2017-09-18T18:41:55.703Z,15.50
2017-09-18T18:44:23.272Z,15.50
2017-09-18T18:46:50.722Z,15.40
2017-09-18T18:49:18.158Z,15.50
2017-09-18T18:51:45.810Z,15.60
2017-09-18T18:54:13.235Z,15.60
2017-09-18T18:56:41.456Z,15.60
2017-09-18T18:59:08.918Z,15.60
2017-09-18T19:01:36.360Z,15.60
2017-09-18T19:04:03.848Z,15.60
2017-09-18T19:06:31.317Z,15.60
2017-09-18T19:08:58.763Z,15.40
2017-09-18T19:11:26.232Z,15.40
2017-09-18T19:13:53.868Z,15.30
2017-09-18T19:16:21.306Z,15.40
2017-09-18T19:18:48.755Z,15.40
2017-09-18T19:21:16.195Z,15.40
2017-09-18T19:23:43.689Z,15.40
2017-09-18T19:26:11.338Z,15.30
2017-09-18T19:28:38.783Z,15.30
2017-09-18T19:31:06.275Z,15.30
2017-09-18T19:33:33.824Z,15.20
2017-09-18T19:36:01.315Z,15.20
2017-09-18T19:38:29.519Z,15.20
2017-09-18T19:40:56.994Z,15.20
2017-09-18T19:43:24.544Z,15.30
2017-09-18T19:45:52.061Z,15.30
2017-09-18T19:48:20.275Z,15.30
2017-09-18T19:50:47.731Z,15.30
2017-09-18T19:53:15.207Z,15.30
2017-09-18T19:55:42.650Z,15.40
2017-09-18T19:58:10.095Z,15.30
2017-09-18T20:00:37.558Z,15.20
2017-09-18T20:03:05.002Z,15.10
2017-09-18T20:05:32.495Z,15.10
2017-09-18T20:07:59.954Z,14.90
2017-09-18T20:10:27.424Z,14.80
2017-09-18T20:12:54.849Z,14.80
2017-09-18T20:15:22.319Z,14.60
2017-09-18T20:17:49.767Z,14.50
2017-09-18T20:20:17.258Z,14.50
2017-09-18T20:22:44.803Z,14.60
2017-09-18T20:25:12.362Z,14.70
2017-09-18T20:27:39.810Z,14.70
2017-09-18T20:30:07.260Z,14.80
2017-09-18T20:32:34.726Z,14.80
2017-09-18T20:35:02.187Z,14.80
2017-09-18T20:37:29.654Z,14.80
2017-09-18T20:39:57.140Z,14.70
2017-09-18T20:42:25.349Z,15.00
2017-09-18T20:44:52.831Z,14.90
2017-09-18T20:47:20.283Z,14.90
2017-09-18T20:49:47.817Z,15.00
2017-09-18T20:52:15.292Z,15.00
2017-09-18T20:54:42.986Z,15.00
2017-09-18T20:57:10.425Z,14.90
2017-09-18T20:59:37.906Z,14.80
2017-09-18T21:02:06.120Z,14.90
2017-09-18T21:04:33.571Z,14.80
2017-09-18T21:07:01.021Z,14.90
2017-09-18T21:09:28.532Z,14.90
2017-09-18T21:11:56.776Z,14.70
2017-09-18T21:14:24.248Z,14.60
2017-09-18T21:16:51.719Z,14.70
2017-09-18T21:19:19.274Z,14.70
2017-09-18T21:21:46.829Z,14.80
2017-09-18T21:24:14.285Z,14.80
2017-09-18T21:26:41.751Z,14.70
2017-09-18T21:29:09.210Z,14.70
2017-09-18T21:31:36.663Z,14.70
2017-09-18T21:34:04.187Z,14.70
2017-09-18T21:36:31.636Z,14.70
2017-09-18T21:38:59.093Z,14.50
2017-09-18T21:41:26.541Z,14.40
2017-09-18T21:43:53.977Z,14.50
2017-09-18T21:46:22.175Z,14.20
2017-09-18T21:48:49.655Z,14.10
2017-09-18T21:51:17.118Z,14.10
2017-09-18T21:53:44.562Z,14.10
2017-09-18T21:56:12.006Z,14.00
2017-09-18T21:58:39.446Z,13.90
2017-09-18T22:01:06.999Z,13.80
2017-09-18T22:03:35.212Z,13.60
2017-09-18T22:06:02.654Z,13.50
2017-09-18T22:08:30.090Z,13.50
2017-09-18T22:10:57.530Z,13.40
2017-09-18T22:13:25.766Z,13.30
2017-09-18T22:15:53.224Z,13.30
2017-09-18T22:18:20.664Z,13.30
2017-09-18T22:20:48.128Z,13.30
2017-09-18T22:23:15.583Z,13.20
2017-09-18T22:25:43.017Z,13.20
2017-09-18T22:28:10.450Z,13.10
2017-09-18T22:30:37.897Z,13.00
2017-09-18T22:33:06.135Z,12.80
2017-09-18T22:35:33.617Z,12.70
2017-09-18T22:38:01.849Z,12.80
2017-09-18T22:40:29.288Z,12.70
2017-09-18T22:42:56.767Z,12.70
2017-09-18T22:45:24.200Z,12.70
2017-09-18T22:47:51.690Z,12.60
2017-09-18T22:50:19.342Z,12.70
2017-09-18T22:52:46.774Z,12.70
2017-09-18T22:55:14.217Z,12.70
2017-09-18T22:57:41.658Z,12.80
2017-09-18T23:00:09.877Z,12.80
2017-09-18T23:02:37.332Z,12.70
2017-09-18T23:05:04.784Z,12.80
2017-09-18T23:07:32.231Z,12.80
2017-09-18T23:09:59.676Z,12.80
2017-09-18T23:12:27.164Z,12.70
2017-09-18T23:14:54.624Z,12.80
2017-09-18T23:17:22.062Z,12.80
2017-09-18T23:19:49.515Z,12.80
2017-09-18T23:22:16.994Z,12.80
2017-09-18T23:24:44.430Z,12.80
2017-09-18T23:27:11.875Z,12.90
2017-09-18T23:29:39.338Z,13.00
2017-09-18T23:32:06.795Z,13.10
2017-09-18T23:34:34.226Z,13.20
2017-09-18T23:37:01.729Z,13.20
2017-09-18T23:39:29.142Z,13.30
2017-09-18T23:41:56.610Z,13.40
2017-09-18T23:44:24.058Z,13.50
2017-09-18T23:46:51.545Z,13.60
2017-09-18T23:49:18.980Z,13.60
2017-09-18T23:51:46.426Z,13.70
2017-09-18T23:54:13.870Z,13.80
2017-09-18T23:56:41.459Z,13.90
2017-09-18T23:59:09.668Z,13.70
